Time;durP1;ratioP1;P1;durP2;ratioP2;P2;SDS_P1;SDS_P2;PMS_P1;PMS_P2;Temp;Humidity;BMP_temperature;BMP_pressure;BME280_temperature;BME280_humidity;BME280_pressure;Samples;Min_cycle;Max_cycle;Signal;HPM_P1;HPM_P2
2021/04/25 00:01:19;;;;;;;4.30;3.42;;;16.40;99.90;;;;;;5048586;28;20071;-89
2021/04/25 00:03:45;;;;;;;4.53;3.90;;;16.50;99.90;;;;;;5049152;28;20076;-89
2021/04/25 00:06:10;;;;;;;3.75;3.45;;;16.20;99.90;;;;;;5038557;28;20022;-90
2021/04/25 00:08:36;;;;;;;4.85;4.00;;;16.10;99.90;;;;;;5054210;28;20435;-89
2021/04/25 00:11:03;;;;;;;3.95;3.55;;;16.40;99.90;;;;;;5048661;28;20025;-89
2021/04/25 00:13:29;;;;;;;4.10;3.70;;;16.10;99.90;;;;;;5043194;28;20075;-89
2021/04/25 00:15:55;;;;;;;3.88;3.47;;;16.40;99.90;;;;;;5047259;28;20090;-89
2021/04/25 00:18:21;;;;;;;5.45;3.50;;;16.00;99.90;;;;;;5048333;28;20025;-89
2021/04/25 00:20:47;;;;;;;4.88;3.53;;;16.10;99.90;;;;;;5053909;28;20170;-89
2021/04/25 00:23:13;;;;;;;6.13;3.78;;;16.00;99.90;;;;;;5049708;28;20028;-88
2021/04/25 00:25:38;;;;;;;4.07;3.42;;;16.40;99.90;;;;;;5048684;28;20040;-89
2021/04/25 00:28:04;;;;;;;4.97;3.67;;;16.30;99.90;;;;;;5041556;28;20603;-89
2021/04/25 00:30:30;;;;;;;4.43;3.35;;;16.00;99.90;;;;;;5044671;28;20053;-89
2021/04/25 00:32:56;;;;;;;6.10;3.80;;;16.20;99.90;;;;;;5049336;28;20037;-89
2021/04/25 00:35:21;;;;;;;5.40;3.60;;;16.10;99.90;;;;;;5052312;28;20370;-89
2021/04/25 00:37:47;;;;;;;4.00;3.60;;;16.20;99.90;;;;;;5048048;28;20033;-90
2021/04/25 00:40:15;;;;;;;4.03;3.60;;;15.90;99.90;;;;;;5048410;28;20025;-89
2021/04/25 00:42:41;;;;;;;5.03;3.50;;;15.90;99.90;;;;;;5039959;28;20026;-89
2021/04/25 00:45:12;;;;;;;3.38;3.15;;;15.90;99.90;;;;;;5047519;28;20458;-89
2021/04/25 00:47:39;;;;;;;3.80;3.35;;;15.90;99.90;;;;;;5054667;28;20025;-90
2021/04/25 00:50:05;;;;;;;3.65;3.33;;;15.90;99.90;;;;;;5048307;28;20025;-89
2021/04/25 00:52:36;;;;;;;4.78;4.00;;;15.80;99.90;;;;;;5046523;28;20040;-90
2021/04/25 00:55:02;;;;;;;4.88;3.88;;;15.80;99.90;;;;;;5047741;28;20018;-89
2021/04/25 00:57:27;;;;;;;5.35;3.42;;;15.80;99.90;;;;;;5044058;28;20029;-90
2021/04/25 00:59:54;;;;;;;7.18;3.40;;;15.70;99.90;;;;;;5047979;28;20044;-89
2021/04/25 01:02:20;;;;;;;4.32;3.17;;;15.60;99.90;;;;;;5050906;28;20155;-89
2021/04/25 01:04:46;;;;;;;4.53;4.13;;;15.70;99.90;;;;;;5046471;28;20029;-89
2021/04/25 01:07:12;;;;;;;3.65;3.35;;;15.70;99.90;;;;;;5046583;28;20055;-89
2021/04/25 01:09:38;;;;;;;4.28;3.70;;;15.70;99.90;;;;;;5047725;28;20064;-89
2021/04/25 01:12:04;;;;;;;4.20;3.67;;;15.70;99.90;;;;;;5047808;28;20421;-89
2021/04/25 01:14:30;;;;;;;3.40;3.10;;;15.60;99.90;;;;;;5046973;28;20040;-89
2021/04/25 01:16:56;;;;;;;4.47;3.65;;;15.90;99.90;;;;;;5046811;28;20017;-89
2021/04/25 01:19:21;;;;;;;3.95;3.63;;;15.60;99.90;;;;;;5047253;28;20155;-89
2021/04/25 01:21:47;;;;;;;3.95;3.53;;;15.60;99.90;;;;;;5047704;28;20024;-89
2021/04/25 01:24:12;;;;;;;6.10;3.78;;;15.60;99.90;;;;;;5047635;28;20033;-89
2021/04/25 01:26:38;;;;;;;3.83;3.53;;;15.50;99.90;;;;;;5050203;28;20028;-89
2021/04/25 01:29:04;;;;;;;4.55;3.35;;;15.40;99.90;;;;;;5045923;28;20471;-90
2021/04/25 01:31:30;;;;;;;5.50;3.50;;;15.60;99.90;;;;;;5046818;28;20416;-89
2021/04/25 01:33:55;;;;;;;4.20;3.55;;;15.70;99.90;;;;;;5047611;28;20029;-89
2021/04/25 01:36:21;;;;;;;4.13;3.70;;;15.40;99.90;;;;;;5046817;28;20072;-89
2021/04/25 01:38:46;;;;;;;4.00;3.45;;;15.40;99.90;;;;;;5052349;28;20036;-89
2021/04/25 01:41:12;;;;;;;3.55;3.25;;;15.70;99.90;;;;;;5046778;28;20021;-89
2021/04/25 01:43:38;;;;;;;5.63;3.75;;;15.40;99.90;;;;;;5037292;28;20027;-90
2021/04/25 01:46:03;;;;;;;4.40;3.55;;;15.30;99.90;;;;;;5044149;28;20428;-90
2021/04/25 01:48:29;;;;;;;4.30;3.75;;;15.50;99.90;;;;;;5045381;28;20079;-89
2021/04/25 01:50:55;;;;;;;4.00;3.35;;;15.20;99.90;;;;;;5049406;28;20057;-90
2021/04/25 01:53:20;;;;;;;4.18;3.78;;;15.60;99.90;;;;;;5050012;28;20041;-90
2021/04/25 01:55:47;;;;;;;4.05;3.65;;;15.40;99.90;;;;;;5043411;28;20362;-89
2021/04/25 01:58:12;;;;;;;4.43;3.78;;;15.20;99.90;;;;;;5038272;28;20033;-89
2021/04/25 02:00:41;;;;;;;4.30;3.67;;;15.50;99.90;;;;;;5046792;28;20032;-89
2021/04/25 02:03:08;;;;;;;4.97;3.90;;;15.20;99.90;;;;;;5047652;28;20500;-89
2021/04/25 02:05:34;;;;;;;4.05;3.65;;;15.10;99.90;;;;;;5052228;28;20025;-89
2021/04/25 02:08:00;;;;;;;4.18;3.65;;;15.00;99.90;;;;;;5046533;28;20039;-89
2021/04/25 02:10:28;;;;;;;3.85;3.55;;;15.10;99.90;;;;;;5046526;28;20025;-89
2021/04/25 02:12:55;;;;;;;3.92;3.35;;;15.30;99.90;;;;;;5036315;28;20389;-89
2021/04/25 02:15:22;;;;;;;4.05;3.65;;;14.90;99.90;;;;;;5046640;28;20073;-89
2021/04/25 02:17:47;;;;;;;4.97;3.60;;;14.90;99.90;;;;;;5051396;28;20085;-90
2021/04/25 02:20:15;;;;;;;4.50;3.85;;;14.90;99.90;;;;;;5048491;28;20085;-89
2021/04/25 02:22:41;;;;;;;4.30;3.42;;;15.00;99.90;;;;;;5045931;28;20028;-90
2021/04/25 02:25:09;;;;;;;4.18;3.72;;;14.70;99.90;;;;;;5045114;28;20493;-89
2021/04/25 02:27:34;;;;;;;4.93;3.88;;;14.60;99.90;;;;;;5032789;28;20040;-90
2021/04/25 02:30:00;;;;;;;3.85;3.50;;;14.80;99.90;;;;;;5046462;28;20477;-90
2021/04/25 02:32:26;;;;;;;4.15;3.80;;;14.70;99.90;;;;;;5050630;28;20088;-90
2021/04/25 02:34:52;;;;;;;5.38;3.97;;;14.40;99.90;;;;;;5045394;28;20025;-90
2021/04/25 02:37:17;;;;;;;4.25;3.85;;;14.60;99.90;;;;;;5044152;28;20033;-89
2021/04/25 02:39:43;;;;;;;4.35;3.95;;;14.20;99.90;;;;;;5045516;28;20055;-90
2021/04/25 02:42:09;;;;;;;3.90;3.60;;;14.50;99.90;;;;;;5036959;28;20460;-89
2021/04/25 02:44:35;;;;;;;4.50;4.10;;;14.10;99.90;;;;;;5051436;28;20029;-90
2021/04/25 02:47:00;;;;;;;4.85;4.35;;;14.50;99.90;;;;;;5045930;28;20082;-90
2021/04/25 02:49:26;;;;;;;5.10;4.00;;;14.00;99.90;;;;;;5042244;28;20079;-90
2021/04/25 02:51:52;;;;;;;4.70;4.18;;;13.90;99.90;;;;;;5034076;28;20048;-90
2021/04/25 02:54:19;;;;;;;4.82;4.30;;;13.90;99.90;;;;;;5045776;28;20037;-89
2021/04/25 02:56:44;;;;;;;4.78;4.30;;;13.80;99.90;;;;;;5039991;28;20037;-89
2021/04/25 02:59:10;;;;;;;5.70;4.70;;;13.80;99.90;;;;;;5045475;28;20388;-89
2021/04/25 03:01:35;;;;;;;5.25;4.75;;;13.80;99.90;;;;;;5045860;28;20025;-89
2021/04/25 03:04:01;;;;;;;7.43;4.70;;;14.20;99.90;;;;;;5044355;28;20029;-90
2021/04/25 03:06:26;;;;;;;4.97;4.30;;;13.70;99.90;;;;;;5046669;28;20133;-90
2021/04/25 03:08:52;;;;;;;7.25;4.43;;;13.90;99.90;;;;;;5048874;28;20034;-90
2021/04/25 03:11:18;;;;;;;4.90;4.38;;;13.60;99.90;;;;;;5040007;28;20114;-90
2021/04/25 03:13:43;;;;;;;4.90;4.40;;;13.40;99.90;;;;;;5042124;28;20116;-90
2021/04/25 03:16:09;;;;;;;4.93;4.30;;;13.40;99.90;;;;;;5045593;28;20029;-90
2021/04/25 03:18:34;;;;;;;4.45;3.95;;;13.80;99.90;;;;;;5040833;28;20140;-90
2021/04/25 03:21:00;;;;;;;4.80;4.18;;;13.70;99.90;;;;;;5044523;28;20033;-90
2021/04/25 03:23:26;;;;;;;5.10;4.60;;;13.20;99.90;;;;;;5050617;28;20103;-90
2021/04/25 03:25:52;;;;;;;4.88;4.47;;;12.90;99.90;;;;;;5040157;28;20119;-90
2021/04/25 03:28:17;;;;;;;5.10;4.43;;;13.20;99.90;;;;;;5038743;28;20108;-90
2021/04/25 03:30:43;;;;;;;5.10;4.70;;;13.50;99.90;;;;;;5045638;28;20041;-90
2021/04/25 03:33:08;;;;;;;5.93;4.28;;;13.40;99.90;;;;;;5046555;28;20030;-90
2021/04/25 03:35:34;;;;;;;5.22;4.72;;;13.10;99.90;;;;;;5051141;28;20436;-90
2021/04/25 03:38:00;;;;;;;6.30;4.68;;;13.60;99.90;;;;;;5044702;28;20031;-90
2021/04/25 03:40:26;;;;;;;5.35;4.82;;;13.10;99.90;;;;;;5043331;28;20021;-90
2021/04/25 03:42:51;;;;;;;5.55;5.03;;;13.40;99.90;;;;;;5033696;28;20029;-89
2021/04/25 03:45:18;;;;;;;5.20;4.70;;;13.10;99.90;;;;;;5045603;28;20030;-89
2021/04/25 03:47:49;;;;;;;5.28;4.88;;;13.00;99.90;;;;;;5052096;28;20056;-90
2021/04/25 03:50:17;;;;;;;6.03;4.80;;;13.00;99.90;;;;;;5046082;28;20049;-89
2021/04/25 03:52:44;;;;;;;6.78;4.93;;;13.50;99.90;;;;;;5048145;28;20056;-90
2021/04/25 03:55:12;;;;;;;5.78;5.10;;;12.90;99.90;;;;;;5045506;28;20480;-90
2021/04/25 03:57:38;;;;;;;7.65;5.18;;;12.80;99.90;;;;;;5033337;28;20499;-90
2021/04/25 04:00:09;;;;;;;6.05;5.45;;;12.80;99.90;;;;;;5050606;28;20087;-90
2021/04/25 04:02:35;;;;;;;5.47;4.97;;;12.80;99.90;;;;;;5054402;28;20059;-90
2021/04/25 04:05:00;;;;;;;5.60;5.10;;;12.70;99.90;;;;;;5047839;28;20507;-90
2021/04/25 04:07:26;;;;;;;6.40;5.07;;;13.10;99.90;;;;;;5049093;28;20025;-90
2021/04/25 04:09:52;;;;;;;6.15;5.50;;;12.70;99.90;;;;;;5047973;28;20417;-90
2021/04/25 04:12:18;;;;;;;6.97;5.60;;;12.80;99.90;;;;;;5032472;28;20036;-89
2021/04/25 04:14:44;;;;;;;7.65;6.00;;;12.60;99.90;;;;;;5055356;28;20393;-91
2021/04/25 04:17:10;;;;;;;7.22;5.68;;;12.40;99.90;;;;;;5047395;28;20128;-90
2021/04/25 04:19:38;;;;;;;6.00;5.50;;;12.90;99.90;;;;;;5048890;28;20025;-90
2021/04/25 04:22:03;;;;;;;6.40;5.80;;;12.80;99.90;;;;;;5046825;28;20029;-89
2021/04/25 04:24:29;;;;;;;6.93;6.03;;;12.40;99.90;;;;;;5048309;28;20104;-90
2021/04/25 04:26:55;;;;;;;7.90;5.97;;;12.80;99.90;;;;;;5032787;28;20028;-90
2021/04/25 04:29:20;;;;;;;6.90;6.20;;;12.50;99.90;;;;;;5051181;28;20473;-90
2021/04/25 04:31:46;;;;;;;7.05;5.90;;;12.70;99.90;;;;;;5048208;28;20041;-90
2021/04/25 04:34:11;;;;;;;8.75;5.53;;;12.40;99.90;;;;;;5048809;28;20040;-90
2021/04/25 04:36:37;;;;;;;8.68;6.10;;;12.70;99.90;;;;;;5048264;28;20021;-89
2021/04/25 04:39:04;;;;;;;7.47;6.30;;;12.20;99.90;;;;;;5049701;28;20458;-89
2021/04/25 04:41:29;;;;;;;8.48;6.07;;;12.20;99.90;;;;;;5046647;28;20033;-90
2021/04/25 04:43:55;;;;;;;7.68;5.88;;;12.20;99.90;;;;;;5045651;28;20393;-90
2021/04/25 04:46:21;;;;;;;9.32;5.63;;;12.60;99.90;;;;;;5047234;28;20408;-89
2021/04/25 04:48:46;;;;;;;8.15;5.82;;;12.20;99.90;;;;;;5048299;28;20028;-91
2021/04/25 04:51:12;;;;;;;6.78;5.88;;;12.10;99.90;;;;;;5048376;28;20029;-91
2021/04/25 04:53:38;;;;;;;7.07;6.13;;;12.00;99.90;;;;;;5053668;28;20489;-88
2021/04/25 04:56:04;;;;;;;8.80;5.93;;;12.50;99.90;;;;;;5041797;28;20021;-88
2021/04/25 04:58:30;;;;;;;6.80;6.10;;;12.10;99.90;;;;;;5048809;28;20105;-88
2021/04/25 05:00:55;;;;;;;6.90;5.88;;;12.60;99.90;;;;;;5044833;28;20437;-89
2021/04/25 05:03:21;;;;;;;7.50;6.32;;;12.30;99.90;;;;;;5030517;28;20041;-90
2021/04/25 05:05:47;;;;;;;7.43;6.53;;;12.20;99.90;;;;;;5053267;28;20423;-90
2021/04/25 05:08:12;;;;;;;7.22;6.47;;;12.00;99.90;;;;;;5048317;28;20481;-91
2021/04/25 05:10:38;;;;;;;7.15;6.45;;;12.10;99.90;;;;;;5041762;28;20059;-90
2021/04/25 05:13:08;;;;;;;7.55;6.63;;;12.00;99.90;;;;;;5047326;28;20644;-90
2021/04/25 05:15:35;;;;;;;6.85;6.15;;;12.20;99.90;;;;;;5047537;28;20661;-89
2021/04/25 05:18:00;;;;;;;8.90;5.88;;;12.40;99.90;;;;;;5049845;28;20035;-89
2021/04/25 05:20:28;;;;;;;7.78;6.82;;;12.40;99.90;;;;;;5051558;28;20103;-91
2021/04/25 05:22:54;;;;;;;8.70;6.40;;;12.20;99.90;;;;;;5047576;28;20052;-89
2021/04/25 05:25:20;;;;;;;8.57;6.60;;;12.20;99.90;;;;;;5038925;28;20402;-90
2021/04/25 05:27:46;;;;;;;7.80;6.00;;;12.60;99.90;;;;;;5046663;28;20021;-91
2021/04/25 05:30:13;;;;;;;6.38;5.78;;;12.40;99.90;;;;;;5047757;28;20034;-89
2021/04/25 05:32:38;;;;;;;7.40;6.20;;;12.60;99.90;;;;;;5043520;28;20081;-90
2021/04/25 05:35:04;;;;;;;7.53;6.07;;;12.80;99.90;;;;;;5044689;28;20060;-90
2021/04/25 05:37:30;;;;;;;6.63;5.93;;;12.50;99.90;;;;;;5045074;28;20055;-90
2021/04/25 05:39:56;;;;;;;7.25;6.28;;;12.40;99.90;;;;;;5041592;28;20648;-90
2021/04/25 05:42:21;;;;;;;6.47;5.88;;;12.80;99.90;;;;;;5045698;28;20028;-91
2021/04/25 05:44:47;;;;;;;6.50;5.47;;;12.60;99.90;;;;;;5053822;28;20115;-91
2021/04/25 05:47:13;;;;;;;5.68;5.18;;;12.60;99.90;;;;;;5046426;28;20035;-91
2021/04/25 05:49:38;;;;;;;6.93;6.15;;;12.50;99.90;;;;;;5046380;28;20043;-91
2021/04/25 05:52:04;;;;;;;6.88;5.78;;;12.50;99.90;;;;;;5046878;28;20037;-91
2021/04/25 05:54:30;;;;;;;7.13;6.25;;;12.50;99.90;;;;;;5040510;28;20029;-90
2021/04/25 05:56:55;;;;;;;7.10;6.35;;;12.90;99.90;;;;;;5050282;28;20032;-91
2021/04/25 05:59:21;;;;;;;7.38;6.68;;;12.80;99.90;;;;;;5050637;28;20088;-91
2021/04/25 06:01:47;;;;;;;9.50;6.93;;;12.90;99.90;;;;;;5046751;28;20027;-91
2021/04/25 06:04:12;;;;;;;8.23;6.50;;;13.00;99.90;;;;;;5046385;28;20052;-91
2021/04/25 06:06:38;;;;;;;7.38;6.30;;;13.10;99.90;;;;;;5045588;28;20017;-91
2021/04/25 06:09:05;;;;;;;7.22;6.55;;;13.30;99.90;;;;;;5038849;28;20026;-91
2021/04/25 06:11:30;;;;;;;6.65;6.05;;;13.40;99.90;;;;;;5051703;28;20017;-91
2021/04/25 06:13:56;;;;;;;6.75;6.13;;;13.50;99.90;;;;;;5045770;28;20570;-91
2021/04/25 06:16:22;;;;;;;6.78;6.07;;;13.50;99.90;;;;;;5037206;28;20493;-91
2021/04/25 06:18:47;;;;;;;9.20;6.10;;;13.70;99.90;;;;;;5045165;28;20040;-91
2021/04/25 06:21:13;;;;;;;6.95;6.22;;;13.60;99.90;;;;;;5014600;28;20076;-91
2021/04/25 06:23:39;;;;;;;7.78;6.97;;;13.80;99.90;;;;;;5041985;28;20045;-91
2021/04/25 06:26:04;;;;;;;7.68;6.88;;;13.90;99.90;;;;;;5045453;28;20024;-91
2021/04/25 06:28:30;;;;;;;7.03;6.32;;;14.10;99.90;;;;;;5046471;28;20021;-91
2021/04/25 06:30:56;;;;;;;7.15;6.25;;;13.70;99.90;;;;;;5045853;28;20098;-91
2021/04/25 06:33:22;;;;;;;6.75;6.05;;;13.80;99.90;;;;;;5043408;28;20042;-92
2021/04/25 06:35:49;;;;;;;6.38;5.78;;;13.90;99.90;;;;;;5051785;28;20068;-91
2021/04/25 06:38:15;;;;;;;7.63;6.28;;;14.30;99.90;;;;;;5033066;28;20025;-91
2021/04/25 06:40:41;;;;;;;6.45;5.82;;;14.00;99.90;;;;;;5042246;28;20029;-90
2021/04/25 06:43:07;;;;;;;6.75;5.90;;;14.50;99.90;;;;;;5044833;28;20412;-91
2021/04/25 06:45:33;;;;;;;7.13;5.82;;;14.70;99.90;;;;;;5046636;28;20104;-90
2021/04/25 06:47:59;;;;;;;10.70;6.22;;;14.40;99.90;;;;;;5048778;28;20029;-91
2021/04/25 06:50:24;;;;;;;9.45;6.00;;;14.60;99.90;;;;;;5050219;28;20029;-90
2021/04/25 06:52:50;;;;;;;7.57;6.28;;;14.70;99.90;;;;;;5035149;28;20079;-90
2021/04/25 06:55:19;;;;;;;6.93;5.88;;;14.80;99.90;;;;;;5037509;28;20029;-91
2021/04/25 06:57:46;;;;;;;6.78;5.82;;;14.80;99.90;;;;;;5044806;28;20396;-91
2021/04/25 07:00:19;;;;;;;6.63;5.75;;;14.90;99.90;;;;;;5046667;28;20083;-91
2021/04/25 07:02:45;;;;;;;6.57;5.97;;;14.90;99.90;;;;;;5043986;28;20473;-90
2021/04/25 07:05:12;;;;;;;6.70;6.00;;;14.90;99.90;;;;;;5045153;28;20559;-90
2021/04/25 07:07:38;;;;;;;7.47;6.45;;;14.90;99.90;;;;;;5038968;28;20021;-91
2021/04/25 07:10:05;;;;;;;7.60;6.00;;;15.30;99.90;;;;;;5040010;28;20405;-91
2021/04/25 07:12:30;;;;;;;6.50;5.90;;;15.10;99.90;;;;;;5045848;28;20030;-91
2021/04/25 07:14:57;;;;;;;8.07;6.20;;;15.30;99.90;;;;;;5049086;28;20036;-91
2021/04/25 07:17:23;;;;;;;8.63;5.95;;;15.80;99.90;;;;;;5048478;28;20567;-91
2021/04/25 07:19:49;;;;;;;9.90;5.88;;;16.00;99.90;;;;;;5045944;28;20029;-92
2021/04/25 07:22:15;;;;;;;6.80;5.40;;;15.70;99.90;;;;;;5040819;28;20031;-90
2021/04/25 07:24:40;;;;;;;9.27;5.53;;;15.90;99.90;;;;;;5046176;28;20029;-91
2021/04/25 07:27:06;;;;;;;6.53;5.80;;;15.70;99.90;;;;;;5051196;28;20092;-89
2021/04/25 07:29:32;;;;;;;8.98;6.50;;;15.90;99.90;;;;;;5054549;28;20041;-92
2021/04/25 07:31:58;;;;;;;6.72;5.90;;;16.10;99.90;;;;;;5047744;28;20056;-91
2021/04/25 07:34:24;;;;;;;6.70;5.55;;;16.40;99.90;;;;;;5049599;28;20029;-90
2021/04/25 07:36:50;;;;;;;7.60;5.57;;;16.40;99.90;;;;;;5044771;28;20048;-90
2021/04/25 07:39:16;;;;;;;5.90;5.32;;;16.60;99.90;;;;;;5049292;28;20029;-95
2021/04/25 07:41:41;;;;;;;7.40;5.43;;;16.60;99.90;;;;;;5057659;28;20401;-92
2021/04/25 07:44:07;;;;;;;6.70;5.50;;;16.80;99.90;;;;;;5041454;28;20021;-92
2021/04/25 07:46:32;;;;;;;6.15;5.53;;;16.70;99.90;;;;;;5048252;28;20054;-95
2021/04/25 07:48:58;;;;;;;7.20;5.25;;;16.80;99.90;;;;;;5039717;28;20141;-93
2021/04/25 07:51:24;;;;;;;8.10;5.43;;;16.90;99.90;;;;;;5046795;28;20079;-93
2021/04/25 07:53:52;;;;;;;7.47;4.65;;;17.10;99.90;;;;;;5035695;28;20486;-93
2021/04/25 07:56:18;;;;;;;8.55;5.00;;;17.30;99.90;;;;;;5066683;28;20429;-93
2021/04/25 07:58:44;;;;;;;6.03;4.72;;;17.50;99.90;;;;;;5049295;28;20063;-93
2021/04/25 08:01:10;;;;;;;5.03;4.53;;;17.70;99.90;;;;;;5048035;28;20032;-93
2021/04/25 08:03:37;;;;;;;5.13;4.28;;;17.70;99.90;;;;;;5051271;28;20036;-95
2021/04/25 08:06:05;;;;;;;5.00;4.57;;;17.80;99.90;;;;;;5051099;28;20026;-90
2021/04/25 08:08:31;;;;;;;5.32;4.22;;;17.90;99.90;;;;;;5055174;28;20104;-91
2021/04/25 08:10:56;;;;;;;5.82;4.32;;;18.00;99.90;;;;;;5048536;28;20057;-90
2021/04/25 08:13:22;;;;;;;6.00;4.03;;;18.20;99.90;;;;;;5039887;28;20040;-91
2021/04/25 08:15:48;;;;;;;7.10;4.35;;;18.30;99.90;;;;;;5034363;28;20029;-90
2021/04/25 08:18:14;;;;;;;4.63;4.22;;;18.40;99.90;;;;;;5034839;28;20025;-89
2021/04/25 08:20:40;;;;;;;5.85;4.30;;;18.20;99.90;;;;;;5033709;28;20068;-89
2021/04/25 08:23:06;;;;;;;4.50;3.95;;;18.60;99.90;;;;;;5036868;28;20056;-90
2021/04/25 08:25:32;;;;;;;4.38;3.97;;;18.50;99.90;;;;;;5034616;28;20026;-90
2021/04/25 08:27:58;;;;;;;6.78;4.70;;;18.50;99.90;;;;;;5034132;28;20029;-90
2021/04/25 08:30:24;;;;;;;5.30;4.38;;;18.60;99.90;;;;;;5032962;28;20079;-90
2021/04/25 08:32:50;;;;;;;8.05;4.20;;;18.50;99.90;;;;;;5036086;28;20425;-90
2021/04/25 08:35:17;;;;;;;6.18;3.80;;;18.50;99.90;;;;;;5047709;28;20029;-89
2021/04/25 08:37:43;;;;;;;4.32;3.83;;;18.70;99.90;;;;;;5034612;28;20077;-89
2021/04/25 08:40:09;;;;;;;4.63;3.67;;;18.90;99.90;;;;;;5047937;28;20108;-90
2021/04/25 08:42:35;;;;;;;6.88;4.60;;;18.90;99.90;;;;;;5045791;28;20029;-90
2021/04/25 08:45:01;;;;;;;5.35;4.20;;;18.90;99.90;;;;;;5048717;28;20029;-89
2021/04/25 08:47:29;;;;;;;4.65;4.15;;;19.00;99.90;;;;;;5052270;28;20017;-91
2021/04/25 08:50:03;;;;;;;5.20;4.70;;;19.00;99.90;;;;;;5047937;28;20036;-90
2021/04/25 08:52:30;;;;;;;4.68;4.05;;;19.00;99.90;;;;;;5039166;28;20408;-90
2021/04/25 08:54:56;;;;;;;5.43;4.00;;;19.00;99.90;;;;;;5043722;28;20036;-89
2021/04/25 08:57:22;;;;;;;4.65;4.03;;;19.00;99.90;;;;;;5048839;28;20591;-91
2021/04/25 08:59:48;;;;;;;5.00;4.10;;;19.20;99.90;;;;;;5053026;28;20029;-90
2021/04/25 09:02:13;;;;;;;4.65;4.00;;;19.30;99.90;;;;;;5047426;28;20480;-90
2021/04/25 09:04:39;;;;;;;5.35;3.95;;;19.40;99.90;;;;;;5047893;28;20029;-90
2021/04/25 09:07:05;;;;;;;4.15;3.60;;;19.50;99.90;;;;;;5042340;28;20470;-91
2021/04/25 09:09:47;;;;;;;4.28;3.80;;;19.60;99.90;;;;;;5048478;28;20029;-90
2021/04/25 09:12:30;;;;;;;3.88;3.58;;;19.50;99.90;;;;;;5032119;28;20020;-90
2021/04/25 09:14:56;;;;;;;5.80;3.80;;;19.50;99.90;;;;;;5061815;28;20053;-91
2021/04/25 09:17:22;;;;;;;4.28;3.75;;;19.70;99.90;;;;;;5050848;28;20075;-89
2021/04/25 09:19:51;;;;;;;4.45;3.80;;;19.70;99.90;;;;;;5046948;28;20032;-92
2021/04/25 09:22:18;;;;;;;4.60;3.85;;;19.70;99.90;;;;;;5036766;28;20060;-91
2021/04/25 09:24:44;;;;;;;5.03;4.40;;;19.70;99.90;;;;;;5024325;28;20044;-90
2021/04/25 09:27:10;;;;;;;5.07;3.83;;;19.80;99.90;;;;;;5048013;28;20033;-90
2021/04/25 09:29:50;;;;;;;4.55;3.78;;;20.00;99.90;;;;;;5053857;28;20143;-88
2021/04/25 09:32:21;;;;;;;6.72;3.63;;;20.10;99.90;;;;;;5037234;28;20144;-88
2021/04/25 09:34:47;;;;;;;5.63;3.72;;;20.30;99.90;;;;;;5043041;28;20025;-90
2021/04/25 09:37:18;;;;;;;4.57;3.70;;;20.40;99.90;;;;;;5040655;28;20046;-88
2021/04/25 09:40:08;;;;;;;4.70;3.47;;;20.40;99.90;;;;;;5046233;28;20035;-88
2021/04/25 09:42:54;;;;;;;14.15;5.07;;;20.50;99.90;;;;;;5020416;28;20052;-89
2021/04/25 09:45:26;;;;;;;4.32;3.70;;;20.70;99.90;;;;;;5017325;28;20025;-89
2021/04/25 09:47:52;;;;;;;4.40;3.80;;;20.80;99.90;;;;;;5051674;28;20044;-89
2021/04/25 09:50:20;;;;;;;5.10;3.42;;;20.60;99.90;;;;;;5048176;28;20111;-88
2021/04/25 09:52:49;;;;;;;4.93;4.38;;;20.60;99.90;;;;;;5040767;28;20032;-88
2021/04/25 09:55:17;;;;;;;6.47;3.55;;;20.90;99.90;;;;;;5047564;28;20496;-90
2021/04/25 09:57:43;;;;;;;3.78;3.45;;;21.10;99.90;;;;;;5046548;28;20017;-89
2021/04/25 10:00:09;;;;;;;5.75;4.00;;;21.40;99.90;;;;;;5046447;28;20021;-89
2021/04/25 10:02:59;;;;;;;8.77;3.97;;;21.40;99.90;;;;;;5052577;28;20155;-90
2021/04/25 10:05:28;;;;;;;5.03;4.05;;;21.40;99.90;;;;;;5048720;28;20025;-89
2021/04/25 10:07:55;;;;;;;8.40;4.00;;;21.70;99.90;;;;;;5042090;28;20116;-90
2021/04/25 10:10:20;;;;;;;8.15;3.50;;;21.80;99.90;;;;;;5046911;28;20024;-89
2021/04/25 10:12:46;;;;;;;6.60;4.30;;;22.00;99.90;;;;;;5045288;28;20175;-91
2021/04/25 10:15:13;;;;;;;7.30;4.00;;;21.90;99.90;;;;;;5047116;28;20045;-89
2021/04/25 10:17:42;;;;;;;5.85;3.95;;;21.90;99.90;;;;;;5052585;28;20040;-89
2021/04/25 10:20:08;;;;;;;5.75;3.85;;;21.70;99.90;;;;;;5046000;28;20021;-89
2021/04/25 10:22:37;;;;;;;4.55;3.63;;;21.80;99.90;;;;;;5039904;28;20067;-91
2021/04/25 10:25:03;;;;;;;5.65;4.18;;;21.70;99.90;;;;;;5045848;28;20124;-89
2021/04/25 10:27:29;;;;;;;4.28;3.88;;;22.00;99.90;;;;;;5046295;28;20108;-88
2021/04/25 10:30:00;;;;;;;7.25;4.40;;;22.40;99.90;;;;;;5049655;28;20485;-88
2021/04/25 10:32:26;;;;;;;3.90;3.55;;;23.00;99.90;;;;;;5048623;28;20037;-88
2021/04/25 10:35:15;;;;;;;4.93;4.10;;;23.00;99.90;;;;;;5045386;28;20037;-88
2021/04/25 10:37:41;;;;;;;3.88;3.58;;;23.00;99.90;;;;;;5038771;28;20029;-88
2021/04/25 10:40:52;;;;;;;6.35;3.95;;;23.90;99.90;;;;;;5046108;28;20508;-89
2021/04/25 10:43:20;;;;;;;5.22;3.78;;;25.90;99.90;;;;;;5042275;28;20044;-89
2021/04/25 10:46:00;;;;;;;3.65;3.35;;;29.80;99.90;;;;;;5046165;28;20480;-88
2021/04/25 10:48:29;;;;;;;3.80;3.50;;;33.70;99.90;;;;;;5017973;28;20013;-87
2021/04/25 10:51:08;;;;;;;4.13;3.75;;;34.80;99.90;;;;;;5038169;28;20039;-88
2021/04/25 10:53:37;;;;;;;4.78;3.78;;;35.60;99.90;;;;;;5050463;28;20036;-88
2021/04/25 10:56:12;;;;;;;4.90;4.00;;;36.80;99.90;;;;;;5046013;28;20041;-88
2021/04/25 10:58:38;;;;;;;4.03;3.63;;;37.20;99.90;;;;;;5046013;28;20040;-88
2021/04/25 11:01:04;;;;;;;4.15;3.78;;;36.60;99.90;;;;;;5045953;28;20388;-88
2021/04/25 11:03:32;;;;;;;5.22;4.32;;;36.20;99.90;;;;;;5050243;28;20025;-88
2021/04/25 11:05:58;;;;;;;4.07;3.70;;;34.10;99.90;;;;;;5034960;28;20109;-88
2021/04/25 11:08:30;;;;;;;4.40;3.70;;;32.80;99.90;;;;;;5038999;28;20116;-88
2021/04/25 11:11:11;;;;;;;4.40;4.10;;;33.30;99.90;;;;;;5047851;28;20068;-88
2021/04/25 11:13:45;;;;;;;3.88;3.47;;;34.80;99.90;;;;;;5049058;28;20040;-88
2021/04/25 11:16:14;;;;;;;4.25;3.83;;;34.50;99.90;;;;;;5045405;28;20074;-88
2021/04/25 11:19:04;;;;;;;4.43;4.03;;;35.30;99.90;;;;;;5049927;28;20036;-88
2021/04/25 11:21:40;;;;;;;4.38;3.97;;;35.10;99.90;;;;;;5027362;28;20036;-88
2021/04/25 11:24:08;;;;;;;4.53;3.88;;;35.00;99.90;;;;;;5050976;28;20030;-89
2021/04/25 11:26:34;;;;;;;5.13;3.97;;;36.40;99.90;;;;;;5055190;28;20025;-88
2021/04/25 11:29:01;;;;;;;3.60;3.30;;;37.90;99.90;;;;;;5049446;28;20477;-88
2021/04/25 11:34:26;;;;;;;4.20;3.83;;;36.80;99.90;;;;;;5049310;28;20052;-87
2021/04/25 11:36:55;;;;;;;4.40;4.00;;;37.50;99.90;;;;;;5037474;28;20029;-88
2021/04/25 11:39:23;;;;;;;4.43;3.83;;;36.20;99.90;;;;;;5046720;28;20502;-88
2021/04/25 11:41:51;;;;;;;5.55;4.40;;;37.60;99.90;;;;;;5054842;28;20052;-87
2021/04/25 11:44:31;;;;;;;5.30;4.70;;;39.40;99.90;;;;;;5045173;28;20116;-88
2021/04/25 11:46:58;;;;;;;5.95;5.32;;;39.40;99.90;;;;;;5050757;28;20069;-88
2021/04/25 11:49:30;;;;;;;5.70;4.57;;;37.60;99.90;;;;;;5049023;28;20025;-88
2021/04/25 11:52:14;;;;;;;3.88;3.58;;;37.40;99.90;;;;;;5038261;28;20036;-88
2021/04/25 11:54:58;;;;;;;5.82;4.97;;;36.70;99.90;;;;;;5049279;28;20033;-87
2021/04/25 11:57:26;;;;;;;4.70;3.33;;;35.30;99.90;;;;;;5020293;28;20037;-87
2021/04/25 12:00:08;;;;;;;4.43;3.70;;;33.00;99.90;;;;;;5053825;28;20090;-88
2021/04/25 12:02:38;;;;;;;3.95;3.63;;;33.90;99.90;;;;;;5032652;28;20033;-87
2021/04/25 12:05:06;;;;;;;4.45;3.30;;;35.60;99.90;;;;;;5040901;28;20036;-88
2021/04/25 12:07:37;;;;;;;3.50;3.20;;;35.50;99.90;;;;;;5043501;28;20037;-88
2021/04/25 12:10:26;;;;;;;4.78;3.60;;;34.30;99.90;;;;;;5047066;28;20032;-88
2021/04/25 12:13:11;;;;;;;4.40;3.45;;;33.00;99.90;;;;;;5044093;28;20580;-88
2021/04/25 12:15:53;;;;;;;3.97;3.67;;;32.30;99.90;;;;;;5048705;28;20408;-88
2021/04/25 12:18:24;;;;;;;3.78;3.47;;;30.80;99.90;;;;;;5019014;28;20025;-88
2021/04/25 12:20:52;;;;;;;3.80;3.50;;;30.60;99.90;;;;;;5039574;28;20390;-87
2021/04/25 12:23:23;;;;;;;4.10;3.60;;;31.20;99.90;;;;;;5050167;28;20044;-87
2021/04/25 12:25:50;;;;;;;5.82;3.40;;;33.20;99.90;;;;;;5048413;28;20091;-88
2021/04/25 12:28:17;;;;;;;7.50;3.67;;;34.50;99.90;;;;;;5048528;28;20017;-87
2021/04/25 12:30:45;;;;;;;4.10;3.63;;;34.80;99.90;;;;;;5048737;28;20055;-88
2021/04/25 12:33:16;;;;;;;6.03;3.75;;;34.10;99.90;;;;;;5048180;28;20409;-88
2021/04/25 12:35:46;;;;;;;4.13;3.72;;;33.50;99.90;;;;;;5030618;28;20041;-87
2021/04/25 12:38:24;;;;;;;4.03;3.60;;;33.30;99.90;;;;;;5043586;28;20083;-88
2021/04/25 12:40:56;;;;;;;3.80;3.50;;;33.20;99.90;;;;;;5046254;28;20025;-87
2021/04/25 12:43:22;;;;;;;5.63;3.53;;;33.60;99.90;;;;;;5047996;28;20013;-87
2021/04/25 12:45:48;;;;;;;3.55;3.25;;;34.10;99.90;;;;;;5048382;28;20448;-88
2021/04/25 12:48:58;;;;;;;3.97;3.55;;;34.50;99.90;;;;;;5048033;28;20022;-87
2021/04/25 12:51:25;;;;;;;3.60;3.30;;;32.90;99.90;;;;;;5033152;28;20033;-87
2021/04/25 12:53:51;;;;;;;3.67;3.33;;;32.30;99.90;;;;;;5047083;28;20080;-88